Newport, New Hampshire
Current Conditions -  °F | °C
As of 3:54 AM on Monday 24 Nov 2014 (Local Time) from KVSF Reporting Station
Light Rain Light Rain  
Wind Chill: 35°   Ceiling: 2100
Heat Index: 35°   Visibility: 8mi
Dew Point: 33°   Wind: 0mph
Humidity: 92%   Direction: NA
Pressure: 29.94"   Gusts: NA
Location:  43.36°N, 72.17°W
Report Text: KVSF 240854Z AUTO 00000KT 8SM -RA OVC021 02/01 A2994 RMK AO2 RAB41 SLP142 P0000 60000 T00170006 58026
Loading
Personal Weather Stations






























Interactive Weather Map New forecast layout! Learn more

10-Day Weather Forecast

Advertisements
Track Severe Weather on mobile